Akogare — JPDL — position and weather

sailwx.info

Track history (hours):
 
Tides and Currents Weather Stations Pressure Air Temp Water Temp Dewpoint Dewpoint Depression Visibility Wind Speed Wind Dir Waves Ship Positions

Akogare (Japan)

Ship's website: http://www.akogare.or.jp/eng/top.html

Last reported at 2019-Jun-16 23:27 UTC. Time now 2019-Jun-17 18:37 UTC.
Position N 34°41' E 135°11'.

Length 52 m; draft 4.5 m.

Type: Sailing vessel. MMSI: 431005001.

Date/timePositionNaut miles runAvg speedWind from/ knotsBaromVisibWave heightAir tempDewpointWater temp
2019-Jun-16 23:27N 34°41' E 135°11'0 0.0
2019-Jun-16 22:57N 34°41' E 135°11'0 0.0
2019-Jun-16 22:27N 34°41' E 135°11'0 0.0
2019-Jun-16 21:57N 34°41' E 135°11'0 0.0
2019-Jun-16 21:21N 34°41' E 135°11'0 0.0
2019-Jun-16 20:51N 34°41' E 135°11'0 0.0
2019-Jun-16 20:27N 34°41' E 135°11'0 0.0
2019-Jun-16 19:57N 34°41' E 135°11'0 0.0
2019-Jun-16 19:27N 34°41' E 135°11'0 0.0
2019-Jun-16 18:57N 34°41' E 135°11'0 0.0
2019-Jun-16 18:27N 34°41' E 135°11'0 0.0
2019-Jun-16 17:57N 34°41' E 135°11'0 0.0
2019-Jun-16 17:27N 34°41' E 135°11'0 0.0
2019-Jun-16 16:57N 34°41' E 135°11'0 0.0
2019-Jun-16 16:27N 34°41' E 135°11'0 0.0
2019-Jun-16 15:57N 34°41' E 135°11'0 0.0
2019-Jun-16 15:27N 34°41' E 135°11'0 0.0
2019-Jun-16 14:57N 34°41' E 135°11'0 0.0
2019-Jun-16 14:27N 34°41' E 135°11'0 0.0
2019-Jun-16 13:57N 34°41' E 135°11'0 0.0
2019-Jun-16 13:27N 34°41' E 135°11'0 0.0
2019-Jun-16 12:57N 34°41' E 135°11'0 0.0
2019-Jun-16 12:27N 34°41' E 135°11'0 0.0
2019-Jun-16 11:57N 34°41' E 135°11'0 0.0
2019-Jun-16 11:27N 34°41' E 135°11'0 0.0
2019-Jun-16 10:57N 34°41' E 135°11'0 0.0
2019-Jun-16 10:27N 34°41' E 135°11'0 0.0
2019-Jun-16 09:57N 34°41' E 135°11'0 0.0
2019-Jun-16 09:27N 34°41' E 135°11'0 0.0
2019-Jun-16 08:57N 34°41' E 135°11'0 0.0
2019-Jun-16 08:27N 34°41' E 135°11'0 0.0
2019-Jun-16 07:57N 34°41' E 135°11'0 0.0
2019-Jun-16 07:27N 34°41' E 135°11'0 0.0
2019-Jun-16 06:56N 34°41' E 135°11'0 0.6
2019-Jun-16 06:30N 34°41' E 135°11'1 1.7
2019-Jun-16 06:00N 34°40' E 135°12'1 2.4
2019-Jun-16 05:30N 34°39' E 135°11'1 2.9
2019-Jun-16 05:00N 34°38' E 135°11'1 2.4
2019-Jun-16 04:30N 34°36' E 135°10'2 4.9
2019-Jun-16 04:00N 34°34' E 135°10'3 6.5
2019-Jun-16 03:30N 34°31' E 135°08'3 6.1
2019-Jun-16 03:00N 34°28' E 135°07'3 6.2
2019-Jun-16 02:30N 34°25' E 135°05'3 6.2
2019-Jun-16 02:00N 34°23' E 135°04'3 6.4
2019-Jun-16 01:31N 34°19' E 135°03'1 3.0
2019-Jun-16 01:00N 34°18' E 135°03'0 0.1
2019-Jun-16 00:30N 34°18' E 135°03'0 0.0
2019-Jun-16 00:00N 34°18' E 135°03'0 0.0
2019-Jun-15 23:27N 34°18' E 135°03'0 0.1
2019-Jun-15 23:00N 34°18' E 135°03'0 0.1
2019-Jun-15 22:30N 34°18' E 135°03'1 1.3
2019-Jun-15 22:00N 34°18' E 135°03'1 2.9
2019-Jun-15 21:30N 34°18' E 135°02'1 2.7
2019-Jun-15 21:00N 34°17' E 135°00'0 0.0
2019-Jun-15 20:30N 34°17' E 135°00'0 0.0
2019-Jun-15 20:00N 34°17' E 135°00'1 1.1
2019-Jun-15 19:30N 34°18' E 135°01'1 1.4
2019-Jun-15 19:00N 34°18' E 135°01'0 0.7
2019-Jun-15 18:30N 34°18' E 135°01'1 2.1
2019-Jun-15 18:00N 34°19' E 135°02'1 1.9
2019-Jun-15 17:30N 34°20' E 135°03'1 2.1
2019-Jun-15 17:00N 34°21' E 135°03'1 1.8
2019-Jun-15 16:30N 34°21' E 135°04'1 2.2
2019-Jun-15 16:00N 34°23' E 135°04'1 2.2
2019-Jun-15 15:30N 34°24' E 135°04'1 2.3
2019-Jun-15 15:00N 34°25' E 135°05'2 3.8
2019-Jun-15 14:30N 34°26' E 135°07'2 4.5
2019-Jun-15 14:00N 34°28' E 135°08'3 5.1
2019-Jun-15 13:30N 34°30' E 135°10'4 7.7
2019-Jun-15 13:00N 34°34' E 135°11'4 7.9
2019-Jun-15 12:30N 34°38' E 135°11'3 6.6
2019-Jun-15 12:00N 34°41' E 135°11'0 0.1
2019-Jun-15 11:29N 34°41' E 135°11'0 0.0
2019-Jun-15 10:59N 34°41' E 135°11'0 0.0
2019-Jun-15 10:29N 34°41' E 135°11'0 0.0
2019-Jun-15 09:59N 34°41' E 135°11'0 0.0
2019-Jun-15 09:29N 34°41' E 135°11'0 0.0
2019-Jun-15 08:59N 34°41' E 135°11'0 0.0
2019-Jun-15 08:29N 34°41' E 135°11'0 0.0
2019-Jun-15 07:59N 34°41' E 135°11'0 0.0
2019-Jun-15 07:17N 34°41' E 135°11'0 0.0
2019-Jun-15 06:59N 34°41' E 135°11'0 0.0
2019-Jun-15 06:29N 34°41' E 135°11'0 0.0
2019-Jun-15 05:59N 34°41' E 135°11'0 0.0
2019-Jun-15 05:29N 34°41' E 135°11'0 0.0
2019-Jun-15 04:59N 34°41' E 135°11'0 0.0
2019-Jun-15 04:29N 34°41' E 135°11'0 0.0
2019-Jun-15 03:59N 34°41' E 135°11'0 0.0
2019-Jun-15 03:23N 34°41' E 135°11'0 0.0
2019-Jun-15 02:59N 34°41' E 135°11'0 0.0
2019-Jun-15 02:29N 34°41' E 135°11'0 0.0
2019-Jun-15 01:59N 34°41' E 135°11'0 0.0
2019-Jun-15 01:29N 34°41' E 135°11'0 0.0
2019-Jun-15 00:59N 34°41' E 135°11'0 0.0
2019-Jun-15 00:23N 34°41' E 135°11'0 0.0
2019-Jun-14 23:59N 34°41' E 135°11'0 0.0
2019-Jun-14 23:29N 34°41' E 135°11'0 0.0
2019-Jun-14 22:59N 34°41' E 135°11'0 0.0
2019-Jun-14 22:29N 34°41' E 135°11'0 0.0
2019-Jun-14 21:59N 34°41' E 135°11'0 0.0
2019-Jun-14 21:23N 34°41' E 135°11'0 0.0
2019-Jun-14 20:59N 34°41' E 135°11'0 0.0
2019-Jun-14 20:29N 34°41' E 135°11'0 0.0
2019-Jun-14 19:59N 34°41' E 135°11'0 0.0
2019-Jun-14 19:29N 34°41' E 135°11'0 0.0
2019-Jun-14 18:59N 34°41' E 135°11'0 0.0
2019-Jun-14 18:29N 34°41' E 135°11'0 0.0
2019-Jun-14 17:59N 34°41' E 135°11'0 0.0
2019-Jun-14 17:29N 34°41' E 135°11'0 0.0
2019-Jun-14 16:47N 34°41' E 135°11'0 0.0
2019-Jun-14 16:29N 34°41' E 135°11'0 0.0
2019-Jun-14 15:59N 34°41' E 135°11'0 0.0
2019-Jun-14 15:29N 34°41' E 135°11'0 0.0
2019-Jun-14 14:59N 34°41' E 135°11'0 0.0
2019-Jun-14 14:29N 34°41' E 135°11'0 0.0
2019-Jun-14 13:59N 34°41' E 135°11'0 0.0
2019-Jun-14 13:23N 34°41' E 135°11'0 0.0
2019-Jun-14 12:59N 34°41' E 135°11'0 0.0
2019-Jun-14 12:23N 34°41' E 135°11'0 0.0
2019-Jun-14 11:59N 34°41' E 135°11'0 0.0
2019-Jun-14 11:23N 34°41' E 135°11'0 0.0
2019-Jun-14 10:59N 34°41' E 135°11'0 0.0
2019-Jun-14 10:29N 34°41' E 135°11'0 0.0
2019-Jun-14 09:59N 34°41' E 135°11'0 0.0
2019-Jun-14 09:17N 34°41' E 135°11'0 0.0
2019-Jun-14 08:59N 34°41' E 135°11'0 0.0
2019-Jun-14 08:29N 34°41' E 135°11'0 0.0
2019-Jun-14 07:59N 34°41' E 135°11'0 0.0
2019-Jun-14 07:17N 34°41' E 135°11'0 0.0
2019-Jun-14 06:59N 34°41' E 135°11'0 0.0
2019-Jun-14 06:29N 34°41' E 135°11'0 0.0
2019-Jun-14 05:59N 34°41' E 135°11'0 0.0
2019-Jun-14 05:29N 34°41' E 135°11'0 0.0
2019-Jun-14 04:53N 34°41' E 135°11'0 0.0
2019-Jun-14 04:29N 34°41' E 135°11'0 0.0
2019-Jun-14 03:59N 34°41' E 135°11'0 0.0
2019-Jun-14 03:29N 34°41' E 135°11'0 0.0
2019-Jun-14 02:59N 34°41' E 135°11'0 0.0
2019-Jun-14 02:29N 34°41' E 135°11'0 0.0
2019-Jun-14 01:59N 34°41' E 135°11'0 0.0
2019-Jun-14 01:29N 34°41' E 135°11'0 0.0
2019-Jun-14 00:59N 34°41' E 135°11'0 0.0
2019-Jun-14 00:29N 34°41' E 135°11'0 0.0
2019-Jun-13 23:59N 34°41' E 135°11'0 0.0
2019-Jun-13 23:29N 34°41' E 135°11'0 0.0
2019-Jun-13 22:59N 34°41' E 135°11'0 0.0
2019-Jun-13 22:29N 34°41' E 135°11'0 0.0
2019-Jun-13 21:59N 34°41' E 135°11'0 0.0
2019-Jun-13 21:23N 34°41' E 135°11'0 0.0
2019-Jun-13 20:59N 34°41' E 135°11'0 0.0
2019-Jun-13 20:29N 34°41' E 135°11'0 0.0
2019-Jun-13 19:59N 34°41' E 135°11'0 0.0
2019-Jun-13 19:29N 34°41' E 135°11'0 0.0
2019-Jun-13 18:59N 34°41' E 135°11'0 0.0
2019-Jun-13 18:23N 34°41' E 135°11'0 0.0
2019-Jun-13 17:59N 34°41' E 135°11'0 0.0
2019-Jun-13 17:29N 34°41' E 135°11'0 0.0
2019-Jun-13 16:59N 34°41' E 135°11'0 0.0
2019-Jun-13 16:29N 34°41' E 135°11'0 0.0
2019-Jun-13 15:59N 34°41' E 135°11'0 0.0
2019-Jun-13 15:29N 34°41' E 135°11'0 0.0
2019-Jun-13 14:59N 34°41' E 135°11'0 0.0
2019-Jun-13 14:29N 34°41' E 135°11'0 0.0
2019-Jun-13 13:59N 34°41' E 135°11'0 0.0
2019-Jun-13 13:23N 34°41' E 135°11'0 0.0
2019-Jun-13 12:59N 34°41' E 135°11'0 0.0
2019-Jun-13 12:29N 34°41' E 135°11'0 0.0
2019-Jun-13 11:59N 34°41' E 135°11'0 0.0
2019-Jun-13 11:29N 34°41' E 135°11'0 0.0
2019-Jun-13 10:59N 34°41' E 135°11'0 0.0
2019-Jun-13 10:29N 34°41' E 135°11'0 0.0
2019-Jun-13 09:59N 34°41' E 135°11'0 0.0
2019-Jun-13 09:29N 34°41' E 135°11'0 0.0
2019-Jun-13 08:59N 34°41' E 135°11'0 0.0
2019-Jun-13 08:29N 34°41' E 135°11'0 0.0
2019-Jun-13 07:59N 34°41' E 135°11'0 0.0
2019-Jun-13 07:29N 34°41' E 135°11'0 0.0
2019-Jun-13 06:59N 34°41' E 135°11'0 0.0
2019-Jun-13 06:29N 34°41' E 135°11'0 0.0
2019-Jun-13 05:59N 34°41' E 135°11'0 0.0
2019-Jun-13 05:29N 34°41' E 135°11'0 0.0
2019-Jun-13 04:59N 34°41' E 135°11'0 0.0
2019-Jun-13 04:29N 34°41' E 135°11'0 0.0
2019-Jun-13 03:59N 34°41' E 135°11'0 0.0
2019-Jun-13 03:29N 34°41' E 135°11'0 0.0
2019-Jun-13 02:53N 34°41' E 135°11'0 0.0
2019-Jun-13 02:29N 34°41' E 135°11'0 0.0
2019-Jun-13 01:59N 34°41' E 135°11'0 0.0
2019-Jun-13 01:29N 34°41' E 135°11'0 0.0
2019-Jun-13 00:53N 34°41' E 135°11'0 0.0
2019-Jun-13 00:29N 34°41' E 135°11'0 0.0
2019-Jun-12 23:59N 34°41' E 135°11'0 0.0
2019-Jun-12 23:29N 34°41' E 135°11'0 0.0
2019-Jun-12 22:53N 34°41' E 135°11'0 0.0
2019-Jun-12 22:23N 34°41' E 135°11'0 0.0
2019-Jun-12 21:47N 34°41' E 135°11'0 0.0
2019-Jun-12 21:29N 34°41' E 135°11'0 0.0
2019-Jun-12 20:59N 34°41' E 135°11'0 0.0
2019-Jun-12 20:29N 34°41' E 135°11'0 0.0
2019-Jun-12 19:59N 34°41' E 135°11'0 0.0
2019-Jun-12 19:23N 34°41' E 135°11'0 0.0
2019-Jun-12 18:59N 34°41' E 135°11'0 0.0
2019-Jun-12 18:29N 34°41' E 135°11'0 0.0
2019-Jun-12 17:59N 34°41' E 135°11'0 0.0
2019-Jun-12 17:29N 34°41' E 135°11'0 0.0
2019-Jun-12 16:59N 34°41' E 135°11'0 0.0
2019-Jun-12 16:29N 34°41' E 135°11'0 0.0
2019-Jun-12 15:59N 34°41' E 135°11'0 0.0
2019-Jun-12 15:29N 34°41' E 135°11'0 0.0
2019-Jun-12 14:59N 34°41' E 135°11'0 0.0
2019-Jun-12 14:23N 34°41' E 135°11'0 0.0
2019-Jun-12 13:59N 34°41' E 135°11'0 0.0
2019-Jun-12 13:29N 34°41' E 135°11'0 0.0
2019-Jun-12 12:59N 34°41' E 135°11'0 0.0
2019-Jun-12 12:29N 34°41' E 135°11'0 0.0
2019-Jun-12 11:59N 34°41' E 135°11'0 0.0
2019-Jun-12 11:29N 34°41' E 135°11'0 0.0
2019-Jun-12 10:59N 34°41' E 135°11'0 0.0
2019-Jun-12 10:23N 34°41' E 135°11'0 0.0
2019-Jun-12 09:53N 34°41' E 135°11'0 0.0
2019-Jun-12 09:29N 34°41' E 135°11'0 0.0
2019-Jun-12 08:47N 34°41' E 135°11'0 0.0
2019-Jun-12 08:29N 34°41' E 135°11'0 0.0
2019-Jun-12 07:59N 34°41' E 135°11'0 0.0
2019-Jun-12 07:29N 34°41' E 135°11'0 0.0
2019-Jun-12 06:59N 34°41' E 135°11'0 0.0
2019-Jun-12 06:29N 34°41' E 135°11'0 0.0
2019-Jun-12 05:59N 34°41' E 135°11'0 0.0
2019-Jun-12 05:29N 34°41' E 135°11'0 0.0
2019-Jun-12 04:59N 34°41' E 135°11'0 0.0
2019-Jun-12 04:29N 34°41' E 135°11'0 0.0
2019-Jun-12 03:59N 34°41' E 135°11'0 0.0
2019-Jun-12 03:29N 34°41' E 135°11'0 0.0
2019-Jun-12 02:59N 34°41' E 135°11'0 0.0
2019-Jun-12 01:59N 34°41' E 135°11'0 0.0
2019-Jun-12 01:23N 34°41' E 135°11'0 0.0
2019-Jun-12 00:59N 34°41' E 135°11'0 0.0
2019-Jun-12 00:29N 34°41' E 135°11'0 0.0
2019-Jun-11 23:59N 34°41' E 135°11'0 0.0
2019-Jun-11 23:29N 34°41' E 135°11'0 0.0
2019-Jun-11 22:59N 34°41' E 135°11'0 0.0
2019-Jun-11 22:29N 34°41' E 135°11'0 0.0
2019-Jun-11 21:59N 34°41' E 135°11'0 0.0
2019-Jun-11 21:29N 34°41' E 135°11'0 0.0
2019-Jun-11 20:53N 34°41' E 135°11'0 0.0
2019-Jun-11 20:29N 34°41' E 135°11'0 0.0
2019-Jun-11 19:59N 34°41' E 135°11'0 0.0
2019-Jun-11 19:29N 34°41' E 135°11'0 0.0
2019-Jun-11 18:59N 34°41' E 135°11'0 0.0
2019-Jun-11 18:29N 34°41' E 135°11'0 0.0
2019-Jun-11 17:59N 34°41' E 135°11'0 0.0
2019-Jun-11 17:29N 34°41' E 135°11'0 0.0
2019-Jun-11 16:59N 34°41' E 135°11'0 0.0
2019-Jun-11 16:29N 34°41' E 135°11'0 0.0
2019-Jun-11 15:59N 34°41' E 135°11'0 0.0
2019-Jun-11 15:29N 34°41' E 135°11'0 0.0
2019-Jun-11 14:59N 34°41' E 135°11'0 0.0
2019-Jun-11 14:29N 34°41' E 135°11'0 0.0
2019-Jun-11 13:59N 34°41' E 135°11'0 0.0
2019-Jun-11 13:29N 34°41' E 135°11'0 0.0
2019-Jun-11 12:59N 34°41' E 135°11'0 0.0
2019-Jun-11 12:29N 34°41' E 135°11'0 0.0
2019-Jun-11 11:59N 34°41' E 135°11'0 0.0
2019-Jun-11 11:29N 34°41' E 135°11'0 0.0
2019-Jun-11 10:59N 34°41' E 135°11'0 0.0
2019-Jun-11 10:29N 34°41' E 135°11'0 0.0
2019-Jun-11 09:59N 34°41' E 135°11'0 0.0
2019-Jun-11 09:29N 34°41' E 135°11'0 0.0
2019-Jun-11 08:59N 34°41' E 135°11'0 0.0
2019-Jun-11 08:29N 34°41' E 135°11'0 0.0
2019-Jun-11 07:53N 34°41' E 135°11'0 0.0
2019-Jun-11 07:29N 34°41' E 135°11'0 0.0
2019-Jun-11 06:53N 34°41' E 135°11'0 0.0
2019-Jun-11 06:17N 34°41' E 135°11'0 0.0
2019-Jun-11 05:53N 34°41' E 135°11'0 0.0
2019-Jun-11 05:29N 34°41' E 135°11'0 0.0
2019-Jun-11 04:59N 34°41' E 135°11'0 0.0
2019-Jun-11 04:29N 34°41' E 135°11'0 0.0
2019-Jun-11 03:59N 34°41' E 135°11'0 0.0
2019-Jun-11 03:29N 34°41' E 135°11'0 0.0
2019-Jun-11 02:53N 34°41' E 135°11'0 0.0
2019-Jun-11 02:29N 34°41' E 135°11'0 0.0
2019-Jun-11 01:59N 34°41' E 135°11'0 0.0
2019-Jun-11 01:23N 34°41' E 135°11'0 0.0
2019-Jun-11 00:59N 34°41' E 135°11'0 0.0
2019-Jun-11 00:29N 34°41' E 135°11'0 0.0
2019-Jun-10 23:53N 34°41' E 135°11'0 0.0
2019-Jun-10 23:29N 34°41' E 135°11'0 0.0
2019-Jun-10 22:59N 34°41' E 135°11'0 0.0
2019-Jun-10 22:29N 34°41' E 135°11'0 0.0
2019-Jun-10 21:59N 34°41' E 135°11'0 0.0
2019-Jun-10 21:29N 34°41' E 135°11'0 0.0
2019-Jun-10 20:41N 34°41' E 135°11'0 0.0
2019-Jun-10 20:23N 34°41' E 135°11'0 0.0
2019-Jun-10 19:59N 34°41' E 135°11'0 0.0
2019-Jun-10 19:29N 34°41' E 135°11'0 0.0
2019-Jun-10 18:59N 34°41' E 135°11'0 0.0
2019-Jun-10 18:29N 34°41' E 135°11'0 0.0
2019-Jun-10 17:59N 34°41' E 135°11'0 0.0
2019-Jun-10 17:29N 34°41' E 135°11'0 0.0
2019-Jun-10 16:59N 34°41' E 135°11'0 0.0
2019-Jun-10 16:17N 34°41' E 135°11'0 0.0
2019-Jun-10 15:59N 34°41' E 135°11'0 0.0
2019-Jun-10 15:29N 34°41' E 135°11'0 0.0
2019-Jun-10 14:59N 34°41' E 135°11'0 0.0
2019-Jun-10 14:29N 34°41' E 135°11'0 0.0
2019-Jun-10 13:59N 34°41' E 135°11'0 0.0
2019-Jun-10 13:29N 34°41' E 135°11'0 0.0
2019-Jun-10 12:59N 34°41' E 135°11'0 0.0
2019-Jun-10 12:23N 34°41' E 135°11'0 0.0
2019-Jun-10 11:59N 34°41' E 135°11'0 0.0
2019-Jun-10 11:29N 34°41' E 135°11'0 0.0
2019-Jun-10 10:59N 34°41' E 135°11'0 0.0
2019-Jun-10 10:23N 34°41' E 135°11'0 0.0
2019-Jun-10 09:59N 34°41' E 135°11'0 0.0
2019-Jun-10 09:29N 34°41' E 135°11'0 0.0
2019-Jun-10 08:53N 34°41' E 135°11'0 0.0
2019-Jun-10 08:29N 34°41' E 135°11'0 0.0
2019-Jun-10 07:59N 34°41' E 135°11'0 0.0
2019-Jun-10 07:29N 34°41' E 135°11'0 0.0
2019-Jun-10 06:59N 34°41' E 135°11'0 0.0
2019-Jun-10 06:29N 34°41' E 135°11'0 0.0
2019-Jun-10 05:59N 34°41' E 135°11'0 0.0
2019-Jun-10 05:29N 34°41' E 135°11'0 0.0
2019-Jun-10 04:53N 34°41' E 135°11'0 0.0
2019-Jun-10 04:23N 34°41' E 135°11'0 0.0
2019-Jun-10 03:47N 34°41' E 135°11'0 0.0
2019-Jun-10 03:29N 34°41' E 135°11'0 0.0
2019-Jun-10 02:59N 34°41' E 135°11'0 0.0
2019-Jun-10 02:29N 34°41' E 135°11'0 0.0
2019-Jun-10 01:59N 34°41' E 135°11'0 0.0
2019-Jun-10 01:29N 34°41' E 135°11'0 0.0
2019-Jun-10 00:59N 34°41' E 135°11'0 0.0
2019-Jun-10 00:29N 34°41' E 135°11'0 0.0
2019-Jun-09 23:59N 34°41' E 135°11'0 0.0
2019-Jun-09 23:23N 34°41' E 135°11'0 0.0
2019-Jun-09 22:59N 34°41' E 135°11'0 0.0
2019-Jun-09 22:23N 34°41' E 135°11'0 0.0
2019-Jun-09 21:59N 34°41' E 135°11'0 0.0
2019-Jun-09 21:29N 34°41' E 135°11'0 0.0
2019-Jun-09 20:59N 34°41' E 135°11'0 0.0
2019-Jun-09 20:29N 34°41' E 135°11'0 0.0
2019-Jun-09 19:59N 34°41' E 135°11'0 0.0
2019-Jun-09 19:29N 34°41' E 135°11'0 0.0
2019-Jun-09 18:59N 34°41' E 135°11'0 0.0
2019-Jun-09 18:23N 34°41' E 135°11'0 0.0
2019-Jun-09 17:59N 34°41' E 135°11'0 0.0
2019-Jun-09 17:29N 34°41' E 135°11'0 0.0
2019-Jun-09 16:59N 34°41' E 135°11'0 0.0
2019-Jun-09 16:29N 34°41' E 135°11'0 0.0
2019-Jun-09 15:59N 34°41' E 135°11'0 0.0
2019-Jun-09 15:29N 34°41' E 135°11'0 0.0
2019-Jun-09 14:59N 34°41' E 135°11'0 0.0
2019-Jun-09 14:29N 34°41' E 135°11'0 0.0
2019-Jun-09 13:59N 34°41' E 135°11'0 0.0
2019-Jun-09 13:29N 34°41' E 135°11'0 0.0
2019-Jun-09 12:53N 34°41' E 135°11'0 0.0
2019-Jun-09 12:29N 34°41' E 135°11'0 0.0
2019-Jun-09 11:59N 34°41' E 135°11'0 0.0
2019-Jun-09 11:29N 34°41' E 135°11'0 0.0
2019-Jun-09 10:59N 34°41' E 135°11'0 0.0
2019-Jun-09 10:23N 34°41' E 135°11'0 0.0
2019-Jun-09 09:59N 34°41' E 135°11'0 0.0
2019-Jun-09 09:29N 34°41' E 135°11'0 0.0
2019-Jun-09 08:59N 34°41' E 135°11'0 0.3
2019-Jun-09 08:30N 34°41' E 135°11'1 2.2
2019-Jun-09 08:00N 34°40' E 135°12'3 5.3
2019-Jun-09 07:30N 34°38' E 135°10'2 4.8
2019-Jun-09 07:00N 34°36' E 135°08'3 5.5
2019-Jun-09 06:30N 34°35' E 135°04'4 5.7
2019-Jun-09 05:45N 34°37' E 134°60'2 7.1
2019-Jun-09 05:25N 34°36' E 134°57'3 7.1
2019-Jun-09 04:57N 34°37' E 134°53'13 2.3
2019-Jun-08 23:21N 34°40' E 134°38'10 7.1
2019-Jun-08 21:54N 34°32' E 134°31'3 7.2
2019-Jun-08 21:30N 34°30' E 134°28'5 7.3
2019-Jun-08 20:53N 34°26' E 134°25'2 0.1
2019-Jun-07 14:16N 34°26' E 134°22'5 3.0
2019-Jun-07 12:27N 34°31' E 134°23'0 0.5
2019-Jun-07 12:00N 34°31' E 134°23'0 0.3
2019-Jun-07 10:19N 34°31' E 134°24'15 3.4
2019-Jun-07 06:02N 34°40' E 134°37'6 5.1
2019-Jun-07 04:54N 34°39' E 134°44'8 6.7
2019-Jun-07 03:43N 34°37' E 134°54'2 8.0
2019-Jun-07 03:28N 34°37' E 134°56'4 8.4
2019-Jun-07 02:58N 34°37' E 135°01'4 7.9
2019-Jun-07 02:30N 34°36' E 135°05'4 8.3
2019-Jun-07 02:00N 34°37' E 135°10'1 2.9
2019-Jun-07 01:30N 34°38' E 135°11'3 5.0
2019-Jun-07 00:56N 34°41' E 135°11'0 0.0
2019-Jun-07 00:26N 34°41' E 135°11'0 0.0
2019-Jun-06 23:58N 34°41' E 135°11'0 0.0
2019-Jun-06 23:28N 34°41' E 135°11'0 0.0
2019-Jun-06 22:58N 34°41' E 135°11'  
Track history (hours):
 
Tides and Currents Weather Stations Pressure Air Temp Water Temp Dewpoint Dewpoint Depression Visibility Wind Speed Wind Dir Waves Ship Positions

Akogare (Japan)

Ship's website: http://www.akogare.or.jp/eng/top.html

Last reported at 2019-Jun-16 23:27 UTC. Time now 2019-Jun-17 18:37 UTC.
Position N 34°41' E 135°11'.

Length 52 m; draft 4.5 m.

Type: Sailing vessel. MMSI: 431005001.

Date/timePositionNaut miles runAvg speedWind from/ knotsBaromVisibWave heightAir tempDewpointWater temp
2019-Jun-16 23:27N 34°41' E 135°11'0 0.0
2019-Jun-16 22:57N 34°41' E 135°11'0 0.0
2019-Jun-16 22:27N 34°41' E 135°11'0 0.0
2019-Jun-16 21:57N 34°41' E 135°11'0 0.0
2019-Jun-16 21:21N 34°41' E 135°11'0 0.0
2019-Jun-16 20:51N 34°41' E 135°11'0 0.0
2019-Jun-16 20:27N 34°41' E 135°11'0 0.0
2019-Jun-16 19:57N 34°41' E 135°11'0 0.0
2019-Jun-16 19:27N 34°41' E 135°11'0 0.0
2019-Jun-16 18:57N 34°41' E 135°11'0 0.0
2019-Jun-16 18:27N 34°41' E 135°11'0 0.0
2019-Jun-16 17:57N 34°41' E 135°11'0 0.0
2019-Jun-16 17:27N 34°41' E 135°11'0 0.0
2019-Jun-16 16:57N 34°41' E 135°11'0 0.0
2019-Jun-16 16:27N 34°41' E 135°11'0 0.0
2019-Jun-16 15:57N 34°41' E 135°11'0 0.0
2019-Jun-16 15:27N 34°41' E 135°11'0 0.0
2019-Jun-16 14:57N 34°41' E 135°11'0 0.0
2019-Jun-16 14:27N 34°41' E 135°11'0 0.0
2019-Jun-16 13:57N 34°41' E 135°11'0 0.0
2019-Jun-16 13:27N 34°41' E 135°11'0 0.0
2019-Jun-16 12:57N 34°41' E 135°11'0 0.0
2019-Jun-16 12:27N 34°41' E 135°11'0 0.0
2019-Jun-16 11:57N 34°41' E 135°11'0 0.0
2019-Jun-16 11:27N 34°41' E 135°11'0 0.0
2019-Jun-16 10:57N 34°41' E 135°11'0 0.0
2019-Jun-16 10:27N 34°41' E 135°11'0 0.0
2019-Jun-16 09:57N 34°41' E 135°11'0 0.0
2019-Jun-16 09:27N 34°41' E 135°11'0 0.0
2019-Jun-16 08:57N 34°41' E 135°11'0 0.0
2019-Jun-16 08:27N 34°41' E 135°11'0 0.0
2019-Jun-16 07:57N 34°41' E 135°11'0 0.0
2019-Jun-16 07:27N 34°41' E 135°11'0 0.0
2019-Jun-16 06:56N 34°41' E 135°11'0 0.6
2019-Jun-16 06:30N 34°41' E 135°11'1 1.7
2019-Jun-16 06:00N 34°40' E 135°12'1 2.4
2019-Jun-16 05:30N 34°39' E 135°11'1 2.9
2019-Jun-16 05:00N 34°38' E 135°11'1 2.4
2019-Jun-16 04:30N 34°36' E 135°10'2 4.9
2019-Jun-16 04:00N 34°34' E 135°10'3 6.5
2019-Jun-16 03:30N 34°31' E 135°08'3 6.1
2019-Jun-16 03:00N 34°28' E 135°07'3 6.2
2019-Jun-16 02:30N 34°25' E 135°05'3 6.2
2019-Jun-16 02:00N 34°23' E 135°04'3 6.4
2019-Jun-16 01:31N 34°19' E 135°03'1 3.0
2019-Jun-16 01:00N 34°18' E 135°03'0 0.1
2019-Jun-16 00:30N 34°18' E 135°03'0 0.0
2019-Jun-16 00:00N 34°18' E 135°03'0 0.0
2019-Jun-15 23:27N 34°18' E 135°03'0 0.1
2019-Jun-15 23:00N 34°18' E 135°03'0 0.1
2019-Jun-15 22:30N 34°18' E 135°03'1 1.3
2019-Jun-15 22:00N 34°18' E 135°03'1 2.9
2019-Jun-15 21:30N 34°18' E 135°02'1 2.7
2019-Jun-15 21:00N 34°17' E 135°00'0 0.0
2019-Jun-15 20:30N 34°17' E 135°00'0 0.0
2019-Jun-15 20:00N 34°17' E 135°00'1 1.1
2019-Jun-15 19:30N 34°18' E 135°01'1 1.4
2019-Jun-15 19:00N 34°18' E 135°01'0 0.7
2019-Jun-15 18:30N 34°18' E 135°01'1 2.1
2019-Jun-15 18:00N 34°19' E 135°02'1 1.9
2019-Jun-15 17:30N 34°20' E 135°03'1 2.1
2019-Jun-15 17:00N 34°21' E 135°03'1 1.8
2019-Jun-15 16:30N 34°21' E 135°04'1 2.2
2019-Jun-15 16:00N 34°23' E 135°04'1 2.2
2019-Jun-15 15:30N 34°24' E 135°04'1 2.3
2019-Jun-15 15:00N 34°25' E 135°05'2 3.8
2019-Jun-15 14:30N 34°26' E 135°07'2 4.5
2019-Jun-15 14:00N 34°28' E 135°08'3 5.1
2019-Jun-15 13:30N 34°30' E 135°10'4 7.7
2019-Jun-15 13:00N 34°34' E 135°11'4 7.9
2019-Jun-15 12:30N 34°38' E 135°11'3 6.6
2019-Jun-15 12:00N 34°41' E 135°11'0 0.1
2019-Jun-15 11:29N 34°41' E 135°11'0 0.0
2019-Jun-15 10:59N 34°41' E 135°11'0 0.0
2019-Jun-15 10:29N 34°41' E 135°11'0 0.0
2019-Jun-15 09:59N 34°41' E 135°11'0 0.0
2019-Jun-15 09:29N 34°41' E 135°11'0 0.0
2019-Jun-15 08:59N 34°41' E 135°11'0 0.0
2019-Jun-15 08:29N 34°41' E 135°11'0 0.0
2019-Jun-15 07:59N 34°41' E 135°11'0 0.0
2019-Jun-15 07:17N 34°41' E 135°11'0 0.0
2019-Jun-15 06:59N 34°41' E 135°11'0 0.0
2019-Jun-15 06:29N 34°41' E 135°11'0 0.0
2019-Jun-15 05:59N 34°41' E 135°11'0 0.0
2019-Jun-15 05:29N 34°41' E 135°11'0 0.0
2019-Jun-15 04:59N 34°41' E 135°11'0 0.0
2019-Jun-15 04:29N 34°41' E 135°11'0 0.0
2019-Jun-15 03:59N 34°41' E 135°11'0 0.0
2019-Jun-15 03:23N 34°41' E 135°11'0 0.0
2019-Jun-15 02:59N 34°41' E 135°11'0 0.0
2019-Jun-15 02:29N 34°41' E 135°11'0 0.0
2019-Jun-15 01:59N 34°41' E 135°11'0 0.0
2019-Jun-15 01:29N 34°41' E 135°11'0 0.0
2019-Jun-15 00:59N 34°41' E 135°11'0 0.0
2019-Jun-15 00:23N 34°41' E 135°11'0 0.0
2019-Jun-14 23:59N 34°41' E 135°11'0 0.0
2019-Jun-14 23:29N 34°41' E 135°11'0 0.0
2019-Jun-14 22:59N 34°41' E 135°11'0 0.0
2019-Jun-14 22:29N 34°41' E 135°11'0 0.0
2019-Jun-14 21:59N 34°41' E 135°11'0 0.0
2019-Jun-14 21:23N 34°41' E 135°11'0 0.0
2019-Jun-14 20:59N 34°41' E 135°11'0 0.0
2019-Jun-14 20:29N 34°41' E 135°11'0 0.0
2019-Jun-14 19:59N 34°41' E 135°11'0 0.0
2019-Jun-14 19:29N 34°41' E 135°11'0 0.0
2019-Jun-14 18:59N 34°41' E 135°11'0 0.0
2019-Jun-14 18:29N 34°41' E 135°11'0 0.0
2019-Jun-14 17:59N 34°41' E 135°11'0 0.0
2019-Jun-14 17:29N 34°41' E 135°11'0 0.0
2019-Jun-14 16:47N 34°41' E 135°11'0 0.0
2019-Jun-14 16:29N 34°41' E 135°11'0 0.0
2019-Jun-14 15:59N 34°41' E 135°11'0 0.0
2019-Jun-14 15:29N 34°41' E 135°11'0 0.0
2019-Jun-14 14:59N 34°41' E 135°11'0 0.0
2019-Jun-14 14:29N 34°41' E 135°11'0 0.0
2019-Jun-14 13:59N 34°41' E 135°11'0 0.0
2019-Jun-14 13:23N 34°41' E 135°11'0 0.0
2019-Jun-14 12:59N 34°41' E 135°11'0 0.0
2019-Jun-14 12:23N 34°41' E 135°11'0 0.0
2019-Jun-14 11:59N 34°41' E 135°11'0 0.0
2019-Jun-14 11:23N 34°41' E 135°11'0 0.0
2019-Jun-14 10:59N 34°41' E 135°11'0 0.0
2019-Jun-14 10:29N 34°41' E 135°11'0 0.0
2019-Jun-14 09:59N 34°41' E 135°11'0 0.0
2019-Jun-14 09:17N 34°41' E 135°11'0 0.0
2019-Jun-14 08:59N 34°41' E 135°11'0 0.0
2019-Jun-14 08:29N 34°41' E 135°11'0 0.0
2019-Jun-14 07:59N 34°41' E 135°11'0 0.0
2019-Jun-14 07:17N 34°41' E 135°11'0 0.0
2019-Jun-14 06:59N 34°41' E 135°11'0 0.0
2019-Jun-14 06:29N 34°41' E 135°11'0 0.0
2019-Jun-14 05:59N 34°41' E 135°11'0 0.0
2019-Jun-14 05:29N 34°41' E 135°11'0 0.0
2019-Jun-14 04:53N 34°41' E 135°11'0 0.0
2019-Jun-14 04:29N 34°41' E 135°11'0 0.0
2019-Jun-14 03:59N 34°41' E 135°11'0 0.0
2019-Jun-14 03:29N 34°41' E 135°11'0 0.0
2019-Jun-14 02:59N 34°41' E 135°11'0 0.0
2019-Jun-14 02:29N 34°41' E 135°11'0 0.0
2019-Jun-14 01:59N 34°41' E 135°11'0 0.0
2019-Jun-14 01:29N 34°41' E 135°11'0 0.0
2019-Jun-14 00:59N 34°41' E 135°11'0 0.0
2019-Jun-14 00:29N 34°41' E 135°11'0 0.0
2019-Jun-13 23:59N 34°41' E 135°11'0 0.0
2019-Jun-13 23:29N 34°41' E 135°11'0 0.0
2019-Jun-13 22:59N 34°41' E 135°11'0 0.0
2019-Jun-13 22:29N 34°41' E 135°11'0 0.0
2019-Jun-13 21:59N 34°41' E 135°11'0 0.0
2019-Jun-13 21:23N 34°41' E 135°11'0 0.0
2019-Jun-13 20:59N 34°41' E 135°11'0 0.0
2019-Jun-13 20:29N 34°41' E 135°11'0 0.0
2019-Jun-13 19:59N 34°41' E 135°11'0 0.0
2019-Jun-13 19:29N 34°41' E 135°11'0 0.0
2019-Jun-13 18:59N 34°41' E 135°11'0 0.0
2019-Jun-13 18:23N 34°41' E 135°11'0 0.0
2019-Jun-13 17:59N 34°41' E 135°11'0 0.0
2019-Jun-13 17:29N 34°41' E 135°11'0 0.0
2019-Jun-13 16:59N 34°41' E 135°11'0 0.0
2019-Jun-13 16:29N 34°41' E 135°11'0 0.0
2019-Jun-13 15:59N 34°41' E 135°11'0 0.0
2019-Jun-13 15:29N 34°41' E 135°11'0 0.0
2019-Jun-13 14:59N 34°41' E 135°11'0 0.0
2019-Jun-13 14:29N 34°41' E 135°11'0 0.0
2019-Jun-13 13:59N 34°41' E 135°11'0 0.0
2019-Jun-13 13:23N 34°41' E 135°11'0 0.0
2019-Jun-13 12:59N 34°41' E 135°11'0 0.0
2019-Jun-13 12:29N 34°41' E 135°11'0 0.0
2019-Jun-13 11:59N 34°41' E 135°11'0 0.0
2019-Jun-13 11:29N 34°41' E 135°11'0 0.0
2019-Jun-13 10:59N 34°41' E 135°11'0 0.0
2019-Jun-13 10:29N 34°41' E 135°11'0 0.0
2019-Jun-13 09:59N 34°41' E 135°11'0 0.0
2019-Jun-13 09:29N 34°41' E 135°11'0 0.0
2019-Jun-13 08:59N 34°41' E 135°11'0 0.0
2019-Jun-13 08:29N 34°41' E 135°11'0 0.0
2019-Jun-13 07:59N 34°41' E 135°11'0 0.0
2019-Jun-13 07:29N 34°41' E 135°11'0 0.0
2019-Jun-13 06:59N 34°41' E 135°11'0 0.0
2019-Jun-13 06:29N 34°41' E 135°11'0 0.0
2019-Jun-13 05:59N 34°41' E 135°11'0 0.0
2019-Jun-13 05:29N 34°41' E 135°11'0 0.0
2019-Jun-13 04:59N 34°41' E 135°11'0 0.0
2019-Jun-13 04:29N 34°41' E 135°11'0 0.0
2019-Jun-13 03:59N 34°41' E 135°11'0 0.0
2019-Jun-13 03:29N 34°41' E 135°11'0 0.0
2019-Jun-13 02:53N 34°41' E 135°11'0 0.0
2019-Jun-13 02:29N 34°41' E 135°11'0 0.0
2019-Jun-13 01:59N 34°41' E 135°11'0 0.0
2019-Jun-13 01:29N 34°41' E 135°11'0 0.0
2019-Jun-13 00:53N 34°41' E 135°11'0 0.0
2019-Jun-13 00:29N 34°41' E 135°11'0 0.0
2019-Jun-12 23:59N 34°41' E 135°11'0 0.0
2019-Jun-12 23:29N 34°41' E 135°11'0 0.0
2019-Jun-12 22:53N 34°41' E 135°11'0 0.0
2019-Jun-12 22:23N 34°41' E 135°11'0 0.0
2019-Jun-12 21:47N 34°41' E 135°11'0 0.0
2019-Jun-12 21:29N 34°41' E 135°11'0 0.0
2019-Jun-12 20:59N 34°41' E 135°11'0 0.0
2019-Jun-12 20:29N 34°41' E 135°11'0 0.0
2019-Jun-12 19:59N 34°41' E 135°11'0 0.0
2019-Jun-12 19:23N 34°41' E 135°11'0 0.0
2019-Jun-12 18:59N 34°41' E 135°11'0 0.0
2019-Jun-12 18:29N 34°41' E 135°11'0 0.0
2019-Jun-12 17:59N 34°41' E 135°11'0 0.0
2019-Jun-12 17:29N 34°41' E 135°11'0 0.0
2019-Jun-12 16:59N 34°41' E 135°11'0 0.0
2019-Jun-12 16:29N 34°41' E 135°11'0 0.0
2019-Jun-12 15:59N 34°41' E 135°11'0 0.0
2019-Jun-12 15:29N 34°41' E 135°11'0 0.0
2019-Jun-12 14:59N 34°41' E 135°11'0 0.0
2019-Jun-12 14:23N 34°41' E 135°11'0 0.0
2019-Jun-12 13:59N 34°41' E 135°11'0 0.0
2019-Jun-12 13:29N 34°41' E 135°11'0 0.0
2019-Jun-12 12:59N 34°41' E 135°11'0 0.0
2019-Jun-12 12:29N 34°41' E 135°11'0 0.0
2019-Jun-12 11:59N 34°41' E 135°11'0 0.0
2019-Jun-12 11:29N 34°41' E 135°11'0 0.0
2019-Jun-12 10:59N 34°41' E 135°11'0 0.0
2019-Jun-12 10:23N 34°41' E 135°11'0 0.0
2019-Jun-12 09:53N 34°41' E 135°11'0 0.0
2019-Jun-12 09:29N 34°41' E 135°11'0 0.0
2019-Jun-12 08:47N 34°41' E 135°11'0 0.0
2019-Jun-12 08:29N 34°41' E 135°11'0 0.0
2019-Jun-12 07:59N 34°41' E 135°11'0 0.0
2019-Jun-12 07:29N 34°41' E 135°11'0 0.0
2019-Jun-12 06:59N 34°41' E 135°11'0 0.0
2019-Jun-12 06:29N 34°41' E 135°11'0 0.0
2019-Jun-12 05:59N 34°41' E 135°11'0 0.0
2019-Jun-12 05:29N 34°41' E 135°11'0 0.0
2019-Jun-12 04:59N 34°41' E 135°11'0 0.0
2019-Jun-12 04:29N 34°41' E 135°11'0 0.0
2019-Jun-12 03:59N 34°41' E 135°11'0 0.0
2019-Jun-12 03:29N 34°41' E 135°11'0 0.0
2019-Jun-12 02:59N 34°41' E 135°11'0 0.0
2019-Jun-12 01:59N 34°41' E 135°11'0 0.0
2019-Jun-12 01:23N 34°41' E 135°11'0 0.0
2019-Jun-12 00:59N 34°41' E 135°11'0 0.0
2019-Jun-12 00:29N 34°41' E 135°11'0 0.0
2019-Jun-11 23:59N 34°41' E 135°11'0 0.0
2019-Jun-11 23:29N 34°41' E 135°11'0 0.0
2019-Jun-11 22:59N 34°41' E 135°11'0 0.0
2019-Jun-11 22:29N 34°41' E 135°11'0 0.0
2019-Jun-11 21:59N 34°41' E 135°11'0 0.0
2019-Jun-11 21:29N 34°41' E 135°11'0 0.0
2019-Jun-11 20:53N 34°41' E 135°11'0 0.0
2019-Jun-11 20:29N 34°41' E 135°11'0 0.0
2019-Jun-11 19:59N 34°41' E 135°11'0 0.0
2019-Jun-11 19:29N 34°41' E 135°11'0 0.0
2019-Jun-11 18:59N 34°41' E 135°11'0 0.0
2019-Jun-11 18:29N 34°41' E 135°11'0 0.0
2019-Jun-11 17:59N 34°41' E 135°11'0 0.0
2019-Jun-11 17:29N 34°41' E 135°11'0 0.0
2019-Jun-11 16:59N 34°41' E 135°11'0 0.0
2019-Jun-11 16:29N 34°41' E 135°11'0 0.0
2019-Jun-11 15:59N 34°41' E 135°11'0 0.0
2019-Jun-11 15:29N 34°41' E 135°11'0 0.0
2019-Jun-11 14:59N 34°41' E 135°11'0 0.0
2019-Jun-11 14:29N 34°41' E 135°11'0 0.0
2019-Jun-11 13:59N 34°41' E 135°11'0 0.0
2019-Jun-11 13:29N 34°41' E 135°11'0 0.0
2019-Jun-11 12:59N 34°41' E 135°11'0 0.0
2019-Jun-11 12:29N 34°41' E 135°11'0 0.0
2019-Jun-11 11:59N 34°41' E 135°11'0 0.0
2019-Jun-11 11:29N 34°41' E 135°11'0 0.0
2019-Jun-11 10:59N 34°41' E 135°11'0 0.0
2019-Jun-11 10:29N 34°41' E 135°11'0 0.0
2019-Jun-11 09:59N 34°41' E 135°11'0 0.0
2019-Jun-11 09:29N 34°41' E 135°11'0 0.0
2019-Jun-11 08:59N 34°41' E 135°11'0 0.0
2019-Jun-11 08:29N 34°41' E 135°11'0 0.0
2019-Jun-11 07:53N 34°41' E 135°11'0 0.0
2019-Jun-11 07:29N 34°41' E 135°11'0 0.0
2019-Jun-11 06:53N 34°41' E 135°11'0 0.0
2019-Jun-11 06:17N 34°41' E 135°11'0 0.0
2019-Jun-11 05:53N 34°41' E 135°11'0 0.0
2019-Jun-11 05:29N 34°41' E 135°11'0 0.0
2019-Jun-11 04:59N 34°41' E 135°11'0 0.0
2019-Jun-11 04:29N 34°41' E 135°11'0 0.0
2019-Jun-11 03:59N 34°41' E 135°11'0 0.0
2019-Jun-11 03:29N 34°41' E 135°11'0 0.0
2019-Jun-11 02:53N 34°41' E 135°11'0 0.0
2019-Jun-11 02:29N 34°41' E 135°11'0 0.0
2019-Jun-11 01:59N 34°41' E 135°11'0 0.0
2019-Jun-11 01:23N 34°41' E 135°11'0 0.0
2019-Jun-11 00:59N 34°41' E 135°11'0 0.0
2019-Jun-11 00:29N 34°41' E 135°11'0 0.0
2019-Jun-10 23:53N 34°41' E 135°11'0 0.0
2019-Jun-10 23:29N 34°41' E 135°11'0 0.0
2019-Jun-10 22:59N 34°41' E 135°11'0 0.0
2019-Jun-10 22:29N 34°41' E 135°11'0 0.0
2019-Jun-10 21:59N 34°41' E 135°11'0 0.0
2019-Jun-10 21:29N 34°41' E 135°11'0 0.0
2019-Jun-10 20:41N 34°41' E 135°11'0 0.0
2019-Jun-10 20:23N 34°41' E 135°11'0 0.0
2019-Jun-10 19:59N 34°41' E 135°11'0 0.0
2019-Jun-10 19:29N 34°41' E 135°11'0 0.0
2019-Jun-10 18:59N 34°41' E 135°11'0 0.0
2019-Jun-10 18:29N 34°41' E 135°11'0 0.0
2019-Jun-10 17:59N 34°41' E 135°11'0 0.0
2019-Jun-10 17:29N 34°41' E 135°11'0 0.0
2019-Jun-10 16:59N 34°41' E 135°11'0 0.0
2019-Jun-10 16:17N 34°41' E 135°11'0 0.0
2019-Jun-10 15:59N 34°41' E 135°11'0 0.0
2019-Jun-10 15:29N 34°41' E 135°11'0 0.0
2019-Jun-10 14:59N 34°41' E 135°11'0 0.0
2019-Jun-10 14:29N 34°41' E 135°11'0 0.0
2019-Jun-10 13:59N 34°41' E 135°11'0 0.0
2019-Jun-10 13:29N 34°41' E 135°11'0 0.0
2019-Jun-10 12:59N 34°41' E 135°11'0 0.0
2019-Jun-10 12:23N 34°41' E 135°11'0 0.0
2019-Jun-10 11:59N 34°41' E 135°11'0 0.0
2019-Jun-10 11:29N 34°41' E 135°11'0 0.0
2019-Jun-10 10:59N 34°41' E 135°11'0 0.0
2019-Jun-10 10:23N 34°41' E 135°11'0 0.0
2019-Jun-10 09:59N 34°41' E 135°11'0 0.0
2019-Jun-10 09:29N 34°41' E 135°11'0 0.0
2019-Jun-10 08:53N 34°41' E 135°11'0 0.0
2019-Jun-10 08:29N 34°41' E 135°11'0 0.0
2019-Jun-10 07:59N 34°41' E 135°11'0 0.0
2019-Jun-10 07:29N 34°41' E 135°11'0 0.0
2019-Jun-10 06:59N 34°41' E 135°11'0 0.0
2019-Jun-10 06:29N 34°41' E 135°11'0 0.0
2019-Jun-10 05:59N 34°41' E 135°11'0 0.0
2019-Jun-10 05:29N 34°41' E 135°11'0 0.0
2019-Jun-10 04:53N 34°41' E 135°11'0 0.0
2019-Jun-10 04:23N 34°41' E 135°11'0 0.0
2019-Jun-10 03:47N 34°41' E 135°11'0 0.0
2019-Jun-10 03:29N 34°41' E 135°11'0 0.0
2019-Jun-10 02:59N 34°41' E 135°11'0 0.0
2019-Jun-10 02:29N 34°41' E 135°11'0 0.0
2019-Jun-10 01:59N 34°41' E 135°11'0 0.0
2019-Jun-10 01:29N 34°41' E 135°11'0 0.0
2019-Jun-10 00:59N 34°41' E 135°11'0 0.0
2019-Jun-10 00:29N 34°41' E 135°11'0 0.0
2019-Jun-09 23:59N 34°41' E 135°11'0 0.0
2019-Jun-09 23:23N 34°41' E 135°11'0 0.0
2019-Jun-09 22:59N 34°41' E 135°11'0 0.0
2019-Jun-09 22:23N 34°41' E 135°11'0 0.0
2019-Jun-09 21:59N 34°41' E 135°11'0 0.0
2019-Jun-09 21:29N 34°41' E 135°11'0 0.0
2019-Jun-09 20:59N 34°41' E 135°11'0 0.0
2019-Jun-09 20:29N 34°41' E 135°11'0 0.0
2019-Jun-09 19:59N 34°41' E 135°11'0 0.0
2019-Jun-09 19:29N 34°41' E 135°11'0 0.0
2019-Jun-09 18:59N 34°41' E 135°11'0 0.0
2019-Jun-09 18:23N 34°41' E 135°11'0 0.0
2019-Jun-09 17:59N 34°41' E 135°11'0 0.0
2019-Jun-09 17:29N 34°41' E 135°11'0 0.0
2019-Jun-09 16:59N 34°41' E 135°11'0 0.0
2019-Jun-09 16:29N 34°41' E 135°11'0 0.0
2019-Jun-09 15:59N 34°41' E 135°11'0 0.0
2019-Jun-09 15:29N 34°41' E 135°11'0 0.0
2019-Jun-09 14:59N 34°41' E 135°11'0 0.0
2019-Jun-09 14:29N 34°41' E 135°11'0 0.0
2019-Jun-09 13:59N 34°41' E 135°11'0 0.0
2019-Jun-09 13:29N 34°41' E 135°11'0 0.0
2019-Jun-09 12:53N 34°41' E 135°11'0 0.0
2019-Jun-09 12:29N 34°41' E 135°11'0 0.0
2019-Jun-09 11:59N 34°41' E 135°11'0 0.0
2019-Jun-09 11:29N 34°41' E 135°11'0 0.0
2019-Jun-09 10:59N 34°41' E 135°11'0 0.0
2019-Jun-09 10:23N 34°41' E 135°11'0 0.0
2019-Jun-09 09:59N 34°41' E 135°11'0 0.0
2019-Jun-09 09:29N 34°41' E 135°11'0 0.0
2019-Jun-09 08:59N 34°41' E 135°11'0 0.3
2019-Jun-09 08:30N 34°41' E 135°11'1 2.2
2019-Jun-09 08:00N 34°40' E 135°12'3 5.3
2019-Jun-09 07:30N 34°38' E 135°10'2 4.8
2019-Jun-09 07:00N 34°36' E 135°08'3 5.5
2019-Jun-09 06:30N 34°35' E 135°04'4 5.7
2019-Jun-09 05:45N 34°37' E 134°60'2 7.1
2019-Jun-09 05:25N 34°36' E 134°57'3 7.1
2019-Jun-09 04:57N 34°37' E 134°53'13 2.3
2019-Jun-08 23:21N 34°40' E 134°38'10 7.1
2019-Jun-08 21:54N 34°32' E 134°31'3 7.2
2019-Jun-08 21:30N 34°30' E 134°28'5 7.3
2019-Jun-08 20:53N 34°26' E 134°25'2 0.1
2019-Jun-07 14:16N 34°26' E 134°22'5 3.0
2019-Jun-07 12:27N 34°31' E 134°23'0 0.5
2019-Jun-07 12:00N 34°31' E 134°23'0 0.3
2019-Jun-07 10:19N 34°31' E 134°24'15 3.4
2019-Jun-07 06:02N 34°40' E 134°37'6 5.1
2019-Jun-07 04:54N 34°39' E 134°44'8 6.7
2019-Jun-07 03:43N 34°37' E 134°54'2 8.0
2019-Jun-07 03:28N 34°37' E 134°56'4 8.4
2019-Jun-07 02:58N 34°37' E 135°01'4 7.9
2019-Jun-07 02:30N 34°36' E 135°05'4 8.3
2019-Jun-07 02:00N 34°37' E 135°10'1 2.9
2019-Jun-07 01:30N 34°38' E 135°11'3 5.0
2019-Jun-07 00:56N 34°41' E 135°11'0 0.0
2019-Jun-07 00:26N 34°41' E 135°11'0 0.0
2019-Jun-06 23:58N 34°41' E 135°11'0 0.0
2019-Jun-06 23:28N 34°41' E 135°11'0 0.0
2019-Jun-06 22:58N 34°41' E 135°11'  

Dump ship's entire track history